createdAt,value
2022-11-16T00:02:06.017Z,88.48
2022-11-16T00:04:27.902Z,88.42
2022-11-16T00:06:50.157Z,88.27
2022-11-16T00:09:26.879Z,88.29
2022-11-16T00:11:52.402Z,88.23
2022-11-16T00:14:14.374Z,88.29
2022-11-16T00:16:36.523Z,88.21
2022-11-16T00:19:02.850Z,88.38
2022-11-16T00:21:26.849Z,88.31
2022-11-16T00:23:48.924Z,88.37
2022-11-16T00:26:12.890Z,88.38
2022-11-16T00:28:36.131Z,88.08
2022-11-16T00:31:04.680Z,87.96
2022-11-16T00:33:26.698Z,88.27
2022-11-16T00:35:51.339Z,88.20
2022-11-16T00:38:16.400Z,88.13
2022-11-16T00:40:41.413Z,87.89
2022-11-16T00:43:09.569Z,88.28
2022-11-16T00:45:31.626Z,88.25
2022-11-16T00:47:59.175Z,87.93
2022-11-16T00:50:25.212Z,88.25
2022-11-16T00:52:47.432Z,87.89
2022-11-16T00:55:13.534Z,87.94
2022-11-16T00:57:36.243Z,88.08
2022-11-16T00:59:59.405Z,88.15
2022-11-16T01:02:21.441Z,88.00
2022-11-16T01:04:43.905Z,87.98
2022-11-16T01:07:05.971Z,87.92
2022-11-16T01:09:27.930Z,88.19
2022-11-16T01:12:08.147Z,88.23
2022-11-16T01:14:30.634Z,88.50
2022-11-16T01:16:52.487Z,88.29
2022-11-16T01:19:15.529Z,88.19
2022-11-16T01:21:37.491Z,88.42
2022-11-16T01:23:59.588Z,88.62
2022-11-16T01:26:21.605Z,88.17
2022-11-16T01:28:43.533Z,88.17
2022-11-16T01:31:06.677Z,88.11
2022-11-16T01:33:31.557Z,88.10
2022-11-16T01:35:53.624Z,88.32
2022-11-16T01:38:18.389Z,87.87
2022-11-16T01:40:40.468Z,87.88
2022-11-16T01:43:02.505Z,88.08
2022-11-16T01:45:41.331Z,87.90
2022-11-16T01:48:06.803Z,87.80
2022-11-16T01:50:29.815Z,87.85
2022-11-16T01:53:04.032Z,87.86
2022-11-16T01:55:37.796Z,87.75
2022-11-16T01:58:18.923Z,87.62
2022-11-16T02:00:44.785Z,87.62
2022-11-16T02:03:23.241Z,87.51
2022-11-16T02:06:10.805Z,87.85
2022-11-16T02:09:23.985Z,87.85
2022-11-16T02:12:37.775Z,87.51
2022-11-16T02:15:34.170Z,87.99
2022-11-16T02:18:49.731Z,87.80
2022-11-16T02:21:27.220Z,87.84
2022-11-16T02:24:14.077Z,87.88
2022-11-16T02:27:23.662Z,87.73
2022-11-16T02:29:51.549Z,87.96
2022-11-16T02:32:46.551Z,87.83
2022-11-16T02:35:28.942Z,87.98
2022-11-16T02:38:08.054Z,87.84
2022-11-16T02:40:35.665Z,87.99
2022-11-16T02:43:21.774Z,88.09
2022-11-16T02:45:54.107Z,88.42
2022-11-16T02:48:27.477Z,88.22
2022-11-16T02:50:54.125Z,88.61
2022-11-16T02:53:16.203Z,88.12
2022-11-16T02:55:38.440Z,88.42
2022-11-16T02:58:11.138Z,88.04
2022-11-16T03:01:15.852Z,88.49
2022-11-16T03:03:50.258Z,88.41
2022-11-16T03:06:31.516Z,88.73
2022-11-16T03:09:05.657Z,88.96
2022-11-16T03:11:49.038Z,88.96
2022-11-16T03:14:20.748Z,88.56
2022-11-16T03:16:50.330Z,88.62
2022-11-16T03:19:21.328Z,88.61
2022-11-16T03:22:03.404Z,88.45
2022-11-16T03:24:26.179Z,88.57
2022-11-16T03:26:59.875Z,88.56
2022-11-16T03:29:34.037Z,88.88
2022-11-16T03:32:19.200Z,88.74
2022-11-16T03:35:06.665Z,88.65
2022-11-16T03:37:30.969Z,88.87
2022-11-16T03:39:57.829Z,88.95
2022-11-16T03:42:24.764Z,88.68
2022-11-16T03:44:49.846Z,89.10
2022-11-16T03:47:13.938Z,89.06
2022-11-16T03:49:36.293Z,89.03
2022-11-16T03:51:59.147Z,89.26
2022-11-16T03:54:21.292Z,89.01
2022-11-16T03:56:43.258Z,88.97
2022-11-16T03:59:05.289Z,89.09
2022-11-16T04:01:27.369Z,89.20
2022-11-16T04:03:49.301Z,88.99
2022-11-16T04:06:31.607Z,89.39
2022-11-16T04:09:12.005Z,89.38
2022-11-16T04:11:54.510Z,88.83
2022-11-16T04:14:41.724Z,89.13
2022-11-16T04:17:31.716Z,89.01
2022-11-16T04:20:12.353Z,89.01
2022-11-16T04:23:25.030Z,88.75
2022-11-16T04:25:51.501Z,88.72
2022-11-16T04:28:17.569Z,89.21
2022-11-16T04:31:08.196Z,88.67
2022-11-16T04:33:51.670Z,88.56
2022-11-16T04:36:32.214Z,88.62
2022-11-16T04:38:54.194Z,88.54
2022-11-16T04:41:35.061Z,88.34
2022-11-16T04:43:58.511Z,88.84
2022-11-16T04:46:39.201Z,89.19
2022-11-16T04:49:01.253Z,88.84
2022-11-16T04:51:23.231Z,88.80
2022-11-16T04:53:45.088Z,88.66
2022-11-16T04:56:15.030Z,88.73
2022-11-16T04:58:37.729Z,88.31
2022-11-16T05:01:00.319Z,88.59
2022-11-16T05:03:23.246Z,88.46
2022-11-16T05:05:45.798Z,88.27
2022-11-16T05:08:09.291Z,88.08
2022-11-16T05:10:31.606Z,87.86
2022-11-16T05:12:54.494Z,88.05
2022-11-16T05:15:19.684Z,88.09
2022-11-16T05:17:42.697Z,87.76
2022-11-16T05:20:29.231Z,87.90
2022-11-16T05:22:58.625Z,87.69
2022-11-16T05:25:26.394Z,87.97
2022-11-16T05:27:48.808Z,87.82
2022-11-16T05:30:11.970Z,87.64
2022-11-16T05:32:34.543Z,87.56
2022-11-16T05:34:56.752Z,87.87
2022-11-16T05:37:21.192Z,87.49
2022-11-16T05:39:43.443Z,87.45
2022-11-16T05:42:07.278Z,87.65
2022-11-16T05:44:29.283Z,87.67
2022-11-16T05:46:51.720Z,87.00
2022-11-16T05:49:15.265Z,87.35
2022-11-16T05:51:39.084Z,86.85
2022-11-16T05:54:02.906Z,87.16
2022-11-16T05:56:24.999Z,87.09
2022-11-16T05:58:48.818Z,86.96
2022-11-16T06:01:10.922Z,86.56
2022-11-16T06:03:33.622Z,86.83
2022-11-16T06:05:57.194Z,86.43
2022-11-16T06:08:21.322Z,86.41
2022-11-16T06:10:46.697Z,86.10
2022-11-16T06:13:08.697Z,85.81
2022-11-16T06:15:30.720Z,85.83
2022-11-16T06:17:53.329Z,85.60
2022-11-16T06:20:16.480Z,85.50
2022-11-16T06:22:39.815Z,85.24
2022-11-16T06:25:02.772Z,85.15
2022-11-16T06:27:24.851Z,85.00
2022-11-16T06:29:46.822Z,84.95
2022-11-16T06:32:08.752Z,84.96
2022-11-16T06:34:30.866Z,85.19
2022-11-16T06:36:53.399Z,84.77
2022-11-16T06:39:15.935Z,84.85
2022-11-16T06:41:41.386Z,84.75
2022-11-16T06:44:05.293Z,85.17
2022-11-16T06:46:32.390Z,85.21
2022-11-16T06:48:54.524Z,85.00
2022-11-16T06:51:17.086Z,85.03
2022-11-16T06:53:39.081Z,85.13
2022-11-16T06:56:05.464Z,84.98
2022-11-16T06:58:33.267Z,84.70
2022-11-16T07:00:55.380Z,85.06
2022-11-16T07:03:18.259Z,84.77
2022-11-16T07:05:44.826Z,84.44
2022-11-16T07:08:10.073Z,84.29
2022-11-16T07:10:32.002Z,84.41
2022-11-16T07:12:53.929Z,84.05
2022-11-16T07:15:16.468Z,84.41
2022-11-16T07:17:42.966Z,84.66
2022-11-16T07:20:05.588Z,84.96
2022-11-16T07:22:28.357Z,85.11
2022-11-16T07:24:50.495Z,85.21
2022-11-16T07:27:13.424Z,85.34
2022-11-16T07:29:39.456Z,85.68
2022-11-16T07:32:24.574Z,85.66
2022-11-16T07:35:22.069Z,85.93
2022-11-16T07:37:44.156Z,86.15
2022-11-16T07:40:09.372Z,86.14
2022-11-16T07:42:32.952Z,86.31
2022-11-16T07:45:01.754Z,86.34
2022-11-16T07:47:23.660Z,86.28
2022-11-16T07:49:45.602Z,86.59
2022-11-16T07:52:13.697Z,86.53
2022-11-16T07:54:52.745Z,86.84
2022-11-16T07:57:17.317Z,87.04
2022-11-16T07:59:39.339Z,86.93
2022-11-16T08:02:01.648Z,87.00
2022-11-16T08:04:23.624Z,87.31
2022-11-16T08:06:46.881Z,87.31
2022-11-16T08:09:09.558Z,87.16
2022-11-16T08:11:35.230Z,87.15
2022-11-16T08:13:58.181Z,87.06
2022-11-16T08:16:22.963Z,86.88
2022-11-16T08:18:50.856Z,86.70
2022-11-16T08:21:15.920Z,86.50
2022-11-16T08:23:42.471Z,86.11
2022-11-16T08:26:13.600Z,86.10
2022-11-16T08:28:37.722Z,85.86
2022-11-16T08:31:00.131Z,86.06
2022-11-16T08:33:24.455Z,85.47
2022-11-16T08:35:46.521Z,85.51
2022-11-16T08:38:08.546Z,84.86
2022-11-16T08:40:30.460Z,84.77
2022-11-16T08:42:57.008Z,84.41
2022-11-16T08:45:19.093Z,84.10
2022-11-16T08:47:41.013Z,84.18
2022-11-16T08:50:03.761Z,83.98
2022-11-16T08:52:25.995Z,83.85
2022-11-16T08:54:49.550Z,83.34
2022-11-16T08:57:12.517Z,83.30
2022-11-16T08:59:36.462Z,82.98
2022-11-16T09:02:03.557Z,82.77
2022-11-16T09:04:25.577Z,82.79
2022-11-16T09:06:47.712Z,82.44
2022-11-16T09:09:09.689Z,82.03
2022-11-16T09:11:31.584Z,81.90
2022-11-16T09:13:55.662Z,81.78
2022-11-16T09:16:21.117Z,82.10
2022-11-16T09:18:47.248Z,81.47
2022-11-16T09:21:09.213Z,81.31
2022-11-16T09:23:32.132Z,81.22
2022-11-16T09:25:55.530Z,81.01
2022-11-16T09:28:22.245Z,80.48
2022-11-16T09:30:46.621Z,80.25
2022-11-16T09:33:09.064Z,79.78
2022-11-16T09:35:31.793Z,79.94
2022-11-16T09:37:53.768Z,79.99
2022-11-16T09:40:16.125Z,79.91
2022-11-16T09:43:06.363Z,80.15
2022-11-16T09:45:46.476Z,80.21
2022-11-16T09:48:13.624Z,79.50
2022-11-16T09:51:01.878Z,79.46
2022-11-16T09:53:42.345Z,79.26
2022-11-16T09:56:10.582Z,78.76
2022-11-16T09:59:01.482Z,79.10
2022-11-16T10:01:29.110Z,78.49
2022-11-16T10:04:02.450Z,78.17
2022-11-16T10:06:44.646Z,77.69
2022-11-16T10:09:12.719Z,77.64
2022-11-16T10:12:04.487Z,77.63
2022-11-16T10:14:51.390Z,77.52
2022-11-16T10:17:36.515Z,77.38
2022-11-16T10:20:38.579Z,77.14
2022-11-16T10:23:14.530Z,76.58
2022-11-16T10:25:44.844Z,76.28
2022-11-16T10:28:43.580Z,75.86
2022-11-16T10:31:33.487Z,75.10
2022-11-16T10:34:00.958Z,75.46
2022-11-16T10:36:29.609Z,75.23
2022-11-16T10:38:51.766Z,74.43
2022-11-16T10:41:24.482Z,74.00
2022-11-16T10:43:48.663Z,73.85
2022-11-16T10:46:25.729Z,74.32
2022-11-16T10:49:40.056Z,74.28
2022-11-16T10:52:03.006Z,75.01
2022-11-16T10:54:24.973Z,74.21
2022-11-16T10:56:52.770Z,73.79
2022-11-16T10:59:20.438Z,73.98
2022-11-16T11:01:53.374Z,73.41
2022-11-16T11:04:30.191Z,73.44
2022-11-16T11:06:59.331Z,73.48
2022-11-16T11:09:41.788Z,73.36
2022-11-16T11:12:34.889Z,72.76
2022-11-16T11:15:12.264Z,72.75
2022-11-16T11:17:37.014Z,72.14
2022-11-16T11:20:23.070Z,72.34
2022-11-16T11:23:00.569Z,72.23
2022-11-16T11:25:38.844Z,71.52
2022-11-16T11:28:30.115Z,71.89
2022-11-16T11:31:33.901Z,71.30
2022-11-16T11:34:03.334Z,71.81
2022-11-16T11:36:41.563Z,72.00
2022-11-16T11:39:29.576Z,72.01
2022-11-16T11:42:23.614Z,72.27
2022-11-16T11:45:06.827Z,72.51
2022-11-16T11:47:58.132Z,72.26
2022-11-16T11:50:44.685Z,71.60
2022-11-16T11:53:58.275Z,71.92
2022-11-16T11:56:20.818Z,71.88
2022-11-16T11:58:44.384Z,70.86
2022-11-16T12:01:38.656Z,69.72
2022-11-16T12:04:28.537Z,69.17
2022-11-16T12:07:28.580Z,69.77
2022-11-16T12:10:16.764Z,69.39
2022-11-16T12:13:05.824Z,69.53
2022-11-16T12:16:02.157Z,69.71
2022-11-16T12:18:50.478Z,68.94
2022-11-16T12:21:15.083Z,69.38
2022-11-16T12:24:02.200Z,69.46
2022-11-16T12:26:50.393Z,69.66
2022-11-16T12:29:55.895Z,69.61
2022-11-16T12:32:54.988Z,69.99
2022-11-16T12:35:49.286Z,70.14
2022-11-16T12:38:37.386Z,70.58
2022-11-16T12:41:39.568Z,70.19
2022-11-16T12:44:14.895Z,70.06
2022-11-16T12:47:12.437Z,69.43
2022-11-16T12:50:11.400Z,69.18
2022-11-16T12:52:51.556Z,69.04
2022-11-16T12:55:32.183Z,68.79
2022-11-16T12:58:18.923Z,68.41
2022-11-16T13:01:22.570Z,68.13
2022-11-16T13:04:09.673Z,67.97
2022-11-16T13:06:44.450Z,67.65
2022-11-16T13:09:30.130Z,66.99
2022-11-16T13:11:58.419Z,67.16
2022-11-16T13:14:34.231Z,66.89
2022-11-16T13:17:00.600Z,66.54
2022-11-16T13:19:23.719Z,66.61
2022-11-16T13:22:10.631Z,66.17
2022-11-16T13:24:46.494Z,66.37
2022-11-16T13:27:39.453Z,66.16
2022-11-16T13:30:05.529Z,66.18
2022-11-16T13:32:47.013Z,66.14
2022-11-16T13:35:16.822Z,66.05
2022-11-16T13:37:38.763Z,66.33
2022-11-16T13:40:00.677Z,66.80
2022-11-16T13:42:22.734Z,66.96
2022-11-16T13:44:51.322Z,67.38
2022-11-16T13:47:30.640Z,67.75
2022-11-16T13:49:59.701Z,67.91
2022-11-16T13:52:25.032Z,68.19
2022-11-16T13:55:01.682Z,67.85
2022-11-16T13:57:34.966Z,67.66
2022-11-16T14:00:02.737Z,67.85
2022-11-16T14:02:36.227Z,67.64
2022-11-16T14:05:03.155Z,67.78
2022-11-16T14:07:43.299Z,67.52
2022-11-16T14:10:07.938Z,67.75
2022-11-16T14:12:39.087Z,67.15
2022-11-16T14:15:13.429Z,66.88
2022-11-16T14:18:07.506Z,67.17
2022-11-16T14:20:38.620Z,66.59
2022-11-16T14:23:21.467Z,66.79
2022-11-16T14:26:17.432Z,66.87
2022-11-16T14:29:20.276Z,67.24
2022-11-16T14:31:54.753Z,67.27
2022-11-16T14:34:22.563Z,67.42
2022-11-16T14:36:46.807Z,67.30
2022-11-16T14:39:17.863Z,67.54
2022-11-16T14:41:47.192Z,67.65
2022-11-16T14:44:11.305Z,67.62
2022-11-16T14:46:37.263Z,67.99
2022-11-16T14:49:02.612Z,67.92
2022-11-16T14:51:34.131Z,68.06
2022-11-16T14:54:11.424Z,68.06
2022-11-16T14:56:33.497Z,68.24
2022-11-16T14:59:01.556Z,68.15
2022-11-16T15:01:28.188Z,68.57
2022-11-16T15:04:04.133Z,68.39
2022-11-16T15:06:27.170Z,68.19
2022-11-16T15:08:56.993Z,68.58
2022-11-16T15:11:52.614Z,68.45
2022-11-16T15:14:32.662Z,68.38
2022-11-16T15:16:57.757Z,68.77
2022-11-16T15:19:20.980Z,68.67
2022-11-16T15:21:58.523Z,69.06
2022-11-16T15:24:38.549Z,68.82
2022-11-16T15:27:10.981Z,69.01
2022-11-16T15:29:33.034Z,69.03
2022-11-16T15:31:55.011Z,69.26
2022-11-16T15:34:19.668Z,69.43
2022-11-16T15:36:41.926Z,69.46
2022-11-16T15:39:06.168Z,69.45
2022-11-16T15:41:29.405Z,69.43
2022-11-16T15:44:13.608Z,69.40
2022-11-16T15:46:37.189Z,69.47
2022-11-16T15:49:00.297Z,69.96
2022-11-16T15:51:23.545Z,70.01
2022-11-16T15:53:54.291Z,69.94
2022-11-16T15:56:32.888Z,70.02
2022-11-16T15:59:01.619Z,70.08
2022-11-16T16:01:28.043Z,70.66
2022-11-16T16:04:05.428Z,70.33
2022-11-16T16:06:47.126Z,70.77
2022-11-16T16:09:23.776Z,70.69
2022-11-16T16:11:45.840Z,70.65
2022-11-16T16:14:10.820Z,71.24
2022-11-16T16:16:39.509Z,71.16
2022-11-16T16:19:09.493Z,70.89
2022-11-16T16:21:47.018Z,71.36
2022-11-16T16:24:35.063Z,70.78
2022-11-16T16:26:56.936Z,70.95
2022-11-16T16:29:18.796Z,71.28
2022-11-16T16:31:40.806Z,71.01
2022-11-16T16:34:12.042Z,70.97
2022-11-16T16:36:33.899Z,71.09
2022-11-16T16:38:57.085Z,71.13
2022-11-16T16:41:24.223Z,71.50
2022-11-16T16:43:46.875Z,71.27
2022-11-16T16:46:13.190Z,71.27
2022-11-16T16:48:35.864Z,71.48
2022-11-16T16:50:59.924Z,71.33
2022-11-16T16:53:21.848Z,71.56
2022-11-16T16:55:44.733Z,71.47
2022-11-16T16:58:06.791Z,71.47
2022-11-16T17:00:29.014Z,71.43
2022-11-16T17:02:51.067Z,71.36
2022-11-16T17:05:13.114Z,71.70
2022-11-16T17:07:35.321Z,71.69
2022-11-16T17:09:57.357Z,71.26
2022-11-16T17:12:19.300Z,71.82
2022-11-16T17:14:41.267Z,71.58
2022-11-16T17:17:03.322Z,71.41
2022-11-16T17:19:25.485Z,71.57
2022-11-16T17:21:47.461Z,71.52
2022-11-16T17:24:09.646Z,71.78
2022-11-16T17:26:31.609Z,71.50
2022-11-16T17:28:58.194Z,71.31
2022-11-16T17:31:20.131Z,71.15
2022-11-16T17:33:43.209Z,71.37
2022-11-16T17:36:07.368Z,71.33
2022-11-16T17:38:30.728Z,71.48
2022-11-16T17:40:52.571Z,71.42
2022-11-16T17:43:14.516Z,71.56
2022-11-16T17:45:36.347Z,71.62
2022-11-16T17:47:58.185Z,72.00
2022-11-16T17:50:20.095Z,72.32
2022-11-16T17:52:41.967Z,72.18
2022-11-16T17:55:04.254Z,72.30
2022-11-16T17:57:26.079Z,72.32
2022-11-16T17:59:48.288Z,72.46
2022-11-16T18:02:11.893Z,72.55
2022-11-16T18:04:33.937Z,72.87
2022-11-16T18:06:56.092Z,72.83
2022-11-16T18:09:18.980Z,73.37
2022-11-16T18:11:41.325Z,73.02
2022-11-16T18:14:05.668Z,73.09
2022-11-16T18:16:33.301Z,73.36
2022-11-16T18:18:59.695Z,73.47
2022-11-16T18:21:21.658Z,73.41
2022-11-16T18:23:43.676Z,73.48
2022-11-16T18:26:15.339Z,73.65
2022-11-16T18:28:38.153Z,73.82
2022-11-16T18:31:10.692Z,73.74
2022-11-16T18:33:33.938Z,73.71
2022-11-16T18:35:56.122Z,73.98
2022-11-16T18:38:17.966Z,73.73
2022-11-16T18:40:42.840Z,73.90
2022-11-16T18:43:04.758Z,73.70
2022-11-16T18:45:26.822Z,73.72
2022-11-16T18:47:48.693Z,74.02
2022-11-16T18:50:19.037Z,74.21
2022-11-16T18:52:46.617Z,74.30
2022-11-16T18:55:09.241Z,74.43
2022-11-16T18:57:32.117Z,74.99
2022-11-16T18:59:53.975Z,74.62
2022-11-16T19:02:15.884Z,74.98
2022-11-16T19:04:40.049Z,75.31
2022-11-16T19:07:02.021Z,75.42
2022-11-16T19:09:23.903Z,75.49
2022-11-16T19:11:46.284Z,75.52
2022-11-16T19:14:08.330Z,75.45
2022-11-16T19:16:31.345Z,75.49
2022-11-16T19:18:53.301Z,75.63
2022-11-16T19:21:19.883Z,75.75
2022-11-16T19:23:48.250Z,76.07
2022-11-16T19:26:12.967Z,76.15
2022-11-16T19:28:37.266Z,75.96
2022-11-16T19:30:59.482Z,76.42
2022-11-16T19:33:21.332Z,76.60
2022-11-16T19:35:43.194Z,76.09
2022-11-16T19:38:05.069Z,76.25
2022-11-16T19:40:26.903Z,76.46
2022-11-16T19:42:48.806Z,76.26
2022-11-16T19:45:11.989Z,76.24
2022-11-16T19:47:33.958Z,76.38
2022-11-16T19:49:55.978Z,76.50
2022-11-16T19:52:17.932Z,76.56
2022-11-16T19:54:39.800Z,76.30
2022-11-16T19:57:01.677Z,76.38
2022-11-16T19:59:23.589Z,76.64
2022-11-16T20:01:45.509Z,76.67
2022-11-16T20:04:07.920Z,76.70
2022-11-16T20:06:34.574Z,76.61
2022-11-16T20:09:00.986Z,76.98
2022-11-16T20:11:27.279Z,77.08
2022-11-16T20:13:51.778Z,77.11
2022-11-16T20:16:14.423Z,77.28
2022-11-16T20:18:37.968Z,77.08
2022-11-16T20:21:05.690Z,77.41
2022-11-16T20:23:27.894Z,77.30
2022-11-16T20:25:49.731Z,77.80
2022-11-16T20:28:11.649Z,77.33
2022-11-16T20:30:33.548Z,77.41
2022-11-16T20:32:55.391Z,77.77
2022-11-16T20:35:19.177Z,77.50
2022-11-16T20:37:42.765Z,77.91
2022-11-16T20:40:05.388Z,77.95
2022-11-16T20:42:27.312Z,78.06
2022-11-16T20:44:49.197Z,77.65
2022-11-16T20:47:11.086Z,77.76
2022-11-16T20:49:32.954Z,78.15
2022-11-16T20:51:55.096Z,77.78
2022-11-16T20:54:17.137Z,77.70
2022-11-16T20:56:38.951Z,77.79
2022-11-16T20:59:01.043Z,77.98
2022-11-16T21:01:28.846Z,78.02
2022-11-16T21:03:50.932Z,77.71
2022-11-16T21:06:14.973Z,77.89
2022-11-16T21:08:38.657Z,78.21
2022-11-16T21:11:00.709Z,78.20
2022-11-16T21:13:41.964Z,78.26
2022-11-16T21:16:13.746Z,78.26
2022-11-16T21:18:35.725Z,78.33
2022-11-16T21:21:06.333Z,78.16
2022-11-16T21:23:31.157Z,78.40
2022-11-16T21:26:04.665Z,78.07
2022-11-16T21:28:26.534Z,78.40
2022-11-16T21:31:11.607Z,78.64
2022-11-16T21:33:34.008Z,78.77
2022-11-16T21:35:56.547Z,78.55
2022-11-16T21:38:20.516Z,78.85
2022-11-16T21:40:44.076Z,78.65
2022-11-16T21:43:05.881Z,78.99
2022-11-16T21:45:27.805Z,79.02
2022-11-16T21:47:50.580Z,78.97
2022-11-16T21:52:54.585Z,79.18
2022-11-16T21:55:16.460Z,78.82
2022-11-16T21:57:38.455Z,79.09
2022-11-16T22:00:01.147Z,79.21
2022-11-16T22:02:33.407Z,79.22
2022-11-16T22:05:13.784Z,79.19
2022-11-16T22:07:38.465Z,78.95
2022-11-16T22:10:01.561Z,78.99
2022-11-16T22:12:23.381Z,78.99
2022-11-16T22:14:45.190Z,79.20
2022-11-16T22:17:08.364Z,79.31
2022-11-16T22:19:30.539Z,79.97
2022-11-16T22:21:52.671Z,79.83
2022-11-16T22:24:14.852Z,79.80
2022-11-16T22:26:38.147Z,79.88
2022-11-16T22:29:00.150Z,80.17
2022-11-16T22:31:22.106Z,80.77
2022-11-16T22:33:43.943Z,80.86
2022-11-16T22:36:09.325Z,81.29
2022-11-16T22:38:31.594Z,81.46
2022-11-16T22:40:56.824Z,82.01
2022-11-16T22:43:29.756Z,82.12
2022-11-16T22:45:52.007Z,82.41
2022-11-16T22:48:14.543Z,82.97
2022-11-16T22:50:36.390Z,83.31
2022-11-16T22:52:58.993Z,83.46
2022-11-16T22:55:20.825Z,83.66
2022-11-16T22:57:42.676Z,84.08
2022-11-16T23:00:06.506Z,84.22
2022-11-16T23:02:28.405Z,84.20
2022-11-16T23:04:50.272Z,84.19
2022-11-16T23:07:12.198Z,84.51
2022-11-16T23:09:34.454Z,84.22
2022-11-16T23:12:14.787Z,84.59
2022-11-16T23:14:54.966Z,85.06
2022-11-16T23:17:16.838Z,85.21
2022-11-16T23:19:57.658Z,85.05
2022-11-16T23:22:40.551Z,85.58
2022-11-16T23:25:21.443Z,85.63
2022-11-16T23:28:03.953Z,86.12
2022-11-16T23:30:27.158Z,86.25
2022-11-16T23:32:49.338Z,86.30
2022-11-16T23:35:11.907Z,86.46
2022-11-16T23:37:34.198Z,86.46
2022-11-16T23:39:56.037Z,86.44
2022-11-16T23:42:36.459Z,86.54
2022-11-16T23:44:58.282Z,86.88
2022-11-16T23:47:20.199Z,86.80
2022-11-16T23:49:42.108Z,87.25
2022-11-16T23:52:04.156Z,86.82
2022-11-16T23:54:26.071Z,87.31
2022-11-16T23:56:48.038Z,87.35
2022-11-16T23:59:09.887Z,87.11
